CW7933 Weather Reports


Display with metric or nautical units.
time (UTC)temp
F
wind
direction
speed
MPH
gust
MPH
rain 1hr
in
rain 24hr
in
rain mn
in
humidity
%
barometer
mb
20240624130938 63 248 10.0 10.0 0.00 0.08 0.02 83 1004.9
20240624130438 63 263 10.0 10.0 0.00 0.08 0.02 83 1004.8
20240624125938 63 247 7.0 7.0 0.00 0.08 0.02 83 1004.9
20240624125437 63 242 4.0 5.0 0.00 0.08 0.02 83 1004.8
20240624124937 63 329 5.0 9.0 0.00 0.08 0.02 82 1004.7
20240624124437 63 259 9.0 9.0 0.00 0.08 0.02 82 1004.6
20240624123937 63 275 7.0 7.0 0.01 0.08 0.02 82 1004.7
20240624122937 63 279 8.0 8.0 0.02 0.08 0.02 83 1004.6
20240624122437 63 302 4.0 6.0 0.02 0.08 0.02 82 1004.4
20240624121937 63 238 6.0 8.0 0.02 0.08 0.02 82 1004.5
20240624120937 63 250 10.0 10.0 0.02 0.08 0.02 82 1004.6
20240624120437 64 263 4.0 6.0 0.02 0.08 0.02 82 1004.6
20240624115937 64 271 6.0 6.0 0.02 0.08 0.02 82 1004.6
20240624115437 64 242 3.0 6.0 0.02 0.08 0.02 81 1004.4
20240624114936 65 315 6.0 6.0 0.02 0.08 0.02 80 1004.4
20240624114436 65 303 4.0 8.0 0.02 0.08 0.02 79 1004.2
20240624113936 65 321 8.0 9.0 0.01 0.07 0.01 77 1004.2
20240624113436 66 333 9.0 9.0 0.00 0.06 0.00 75 1003.9
20240624112936 66 265 0.0 7.0 0.00 0.06 0.00 74 1003.7
20240624111436 66 302 2.0 2.0 0.00 0.06 0.00 73 1003.8
20240624110936 66 271 2.0 11.0 0.00 0.06 0.00 74 1003.8
20240624110436 66 281 11.0 11.0 0.00 0.06 0.00 74 1003.8
20240624105435 66 240 10.0 10.0 0.00 0.06 0.00 74 1003.7
20240624104935 66 256 8.0 8.0 0.00 0.06 0.00 74 1003.7
20240624104435 66 267 6.0 6.0 0.00 0.06 0.00 74 1003.7
20240624103435 66 270 6.0 6.0 0.00 0.07 0.00 74 1003.5
20240624102435 66 312 6.0 6.0 0.00 0.07 0.00 73 1003.6
20240624101935 66 277 5.0 5.0 0.00 0.07 0.00 73 1003.5
20240624101435 66 299 5.0 5.0 0.00 0.07 0.00 72 1003.4
20240624100435 66 250 7.0 7.0 0.00 0.07 0.00 72 1003.3
20240624095435 66 242 10.0 10.0 0.00 0.07 0.00 72 1003.1
20240624094434 66 271 5.0 5.0 0.00 0.07 0.00 71 1003.1
20240624093934 67 274 3.0 5.0 0.00 0.07 0.00 71 1003.1
20240624093434 67 283 5.0 7.0 0.00 0.07 0.00 71 1002.9
20240624092434 67 290 11.0 11.0 0.00 0.07 0.00 71 1002.9
20240624091934 67 319 6.0 6.0 0.00 0.07 0.00 71 1002.9
20240624091434 67 234 5.0 5.0 0.00 0.07 0.00 71 1002.8
20240624090934 67 341 4.0 4.0 0.00 0.07 0.00 72 1002.9
20240624085933 67 234 6.0 6.0 0.00 0.07 0.00 72 1002.9
20240624084933 67 256 6.0 6.0 0.00 0.07 0.00 72 1002.8
20240624084433 67 266 2.0 2.0 0.00 0.07 0.00 72 1002.8
20240624083433 67 273 5.0 7.0 0.00 0.07 0.00 72 1002.8
20240624082933 67 273 7.0 10.0 0.00 0.07 0.00 73 1002.8
20240624082433 67 284 10.0 10.0 0.00 0.07 0.00 74 1002.7
20240624081932 67 272 0.0 2.0 0.00 0.07 0.00 73 1002.7
20240624081433 67 266 2.0 4.0 0.00 0.07 0.00 73 1002.5
20240624080933 67 349 4.0 9.0 0.00 0.07 0.00 73 1002.4
20240624074932 67 291 2.0 2.0 0.00 0.07 0.00 73 1002.4
20240624073932 67 260 8.0 9.0 0.00 0.07 0.00 73 1002.2
20240624073432 68 269 9.0 9.0 0.00 0.07 0.00 73 1002.2
20240624072932 68 244 8.0 8.0 0.00 0.07 0.00 73 1002.2
20240624072432 68 303 2.0 2.0 0.00 0.07 0.00 74 1002.1
20240624071432 68 234 8.0 11.0 0.00 0.07 0.00 76 1002.2
20240624070932 68 245 11.0 11.0 0.00 0.07 0.00 77 1002.2
20240624070432 68 284 9.0 9.0 0.00 0.07 0.00 78 1002.2
20240624065932 68 324 0.0 3.0 0.00 0.07 0.00 79 1002.2
20240624065431 68 288 3.0 3.0 0.00 0.07 0.00 79 1002.1
20240624063931 69 263 3.0 3.0 0.00 0.07 0.00 79 1001.9
20240624063431 69 287 1.0 9.0 0.00 0.07 0.00 80 1002.0
20240624062431 69 233 5.0 5.0 0.00 0.07 0.00 80 1002.1
20240624061931 69 250 2.0 2.0 0.00 0.07 0.00 80 1002.2
20240624061431 69 242 0.0 1.0 0.00 0.07 0.00 80 1002.3
20240624060931 69 266 1.0 1.0 0.00 0.07 0.00 81 1002.1
20240624060431 69 279 1.0 3.0 0.00 0.07 0.00 81 1002.0
20240624055931 69 259 3.0 3.0 0.00 0.07 0.00 81 1002.0
20240624055430 69 261 0.0 3.0 0.00 0.07 0.00 81 1002.0
20240624054930 69 260 3.0 7.0 0.00 0.07 0.00 81 1001.9
20240624054430 69 236 7.0 7.0 0.00 0.07 0.00 81 1001.9
20240624053930 70 271 3.0 3.0 0.00 0.07 0.00 81 1001.9
20240624053430 70 263 1.0 1.0 0.00 0.07 0.00 81 1002.0
20240624052930 70 286 1.0 1.0 0.00 0.07 0.00 81 1002.0
20240624052430 70 249 1.0 1.0 0.00 0.07 0.00 81 1002.0
20240624051930 70 278 1.0 1.0 0.00 0.07 0.07 81 1002.0
20240624051430 70 284 0.0 0.0 0.00 0.07 0.07 80 1001.9
20240624050930 70 259 0.0 3.0 0.00 0.07 0.07 80 1001.9
20240624050430 70 256 3.0 3.0 0.00 0.07 0.07 80 1001.8
20240624045930 70 258 3.0 3.0 0.00 0.07 0.07 80 1001.9
20240624045430 70 281 1.0 8.0 0.00 0.07 0.07 80 1001.9
20240624044929 71 276 8.0 8.0 0.00 0.07 0.07 80 1001.9
20240624043929 71 265 8.0 8.0 0.00 0.07 0.07 80 1001.7
20240624043429 71 273 5.0 5.0 0.00 0.07 0.07 81 1001.7
20240624042929 71 269 5.0 6.0 0.00 0.07 0.07 81 1001.8
20240624042429 71 273 6.0 8.0 0.00 0.07 0.07 81 1001.7
20240624041929 72 339 8.0 8.0 0.00 0.07 0.07 81 1001.7
20240624041429 72 271 7.0 7.0 0.00 0.07 0.07 81 1001.7
20240624040429 72 303 0.0 0.0 0.00 0.07 0.07 81 1001.7
20240624034929 73 263 0.0 0.0 0.00 0.07 0.07 81 1001.5
20240624033428 73 273 2.0 2.0 0.00 0.07 0.07 81 1001.2
20240624032928 73 261 1.0 1.0 0.00 0.07 0.07 81 1000.9
20240624030928 74 311 3.0 3.0 0.00 0.07 0.07 80 1000.9
20240624030428 74 248 0.0 3.0 0.00 0.07 0.07 80 1001.1
20240624025928 74 276 3.0 3.0 0.00 0.07 0.07 80 1001.2
20240624024428 75 285 8.0 8.0 0.00 0.08 0.07 80 1001.3
20240624023928 75 250 6.0 7.0 0.00 0.08 0.07 80 1001.3
20240624021927 76 273 2.0 4.0 0.00 0.08 0.07 84 1000.3
20240624021427 76 246 4.0 4.0 0.00 0.08 0.07 84 1000.3
20240624020927 76 297 0.0 6.0 0.00 0.08 0.07 84 1000.3
20240624020427 75 253 6.0 6.0 0.00 0.08 0.07 84 1000.1
20240624015927 75 244 3.0 3.0 0.00 0.08 0.07 84 1000.1
20240624015427 76 173 3.0 3.0 0.00 0.08 0.07 85 1000.1
20240624014927 76 287 2.0 2.0 0.00 0.08 0.07 85 1000.3
20240624014427 76 185 0.0 0.0 0.00 0.08 0.07 85 1000.2
20240624013927 76 257 0.0 1.0 0.00 0.08 0.07 85 1000.3
20240624013427 76 252 1.0 1.0 0.00 0.08 0.07 85 1000.3
20240624012926 76 219 0.0 2.0 0.00 0.08 0.07 85 1000.3
20240624012426 76 266 2.0 2.0 0.00 0.08 0.07 85 1000.3
20240624011426 76 242 1.0 3.0 0.00 0.08 0.07 85 1000.0
20240624010426 76 239 1.0 2.0 0.00 0.08 0.07 85 1000.0
20240624005926 76 188 2.0 2.0 0.00 0.08 0.07 85 1000.0
20240624005426 76 313 0.0 0.0 0.00 0.08 0.07 85 1000.0
20240624004426 77 278 1.0 1.0 0.00 0.51 0.07 85 1000.1
20240624003426 77 271 4.0 4.0 0.00 0.76 0.07 85 1000.0
20240624002925 77 284 0.0 2.0 0.00 0.76 0.07 85 1000.0
20240624002425 77 279 2.0 2.0 0.00 0.76 0.07 85 1000.0
20240624001425 77 273 0.0 0.0 0.00 0.76 0.07 85 1000.1
20240624000925 77 248 0.0 4.0 0.00 0.76 0.07 85 1000.2
20240624000425 77 257 4.0 4.0 0.00 0.76 0.07 86 1000.4
20240623235925 77 292 2.0 2.0 0.01 0.77 0.07 86 1000.3
20240623235425 78 300 1.0 2.0 0.01 0.81 0.07 86 1000.2
20240623234925 78 298 2.0 6.0 0.03 0.94 0.07 85 1000.3
20240623233525 78 278 0.0 0.0 0.04 0.97 0.07 85 1000.2
20240623232925 78 277 0.0 0.0 0.04 0.97 0.07 84 1000.2
20240623232425 78 281 0.0 0.0 0.05 0.97 0.07 84 1000.2
20240623231424 78 281 2.0 2.0 0.05 0.97 0.07 83 1000.4
20240623230924 79 277 2.0 2.0 0.05 0.97 0.07 83 1000.4
20240623230424 79 295 2.0 2.0 0.05 0.97 0.07 82 1000.5
20240623225524 79 298 0.0 1.0 0.04 0.96 0.06 80 1000.4
20240623224924 79 300 1.0 1.0 0.02 0.94 0.04 80 1000.5
20240623224424 80 300 0.0 0.0 0.01 0.93 0.03 79 1000.4
20240623223924 80 301 0.0 0.0 0.01 0.93 0.03 79 1000.4
20240623223424 80 301 0.0 0.0 0.01 0.93 0.03 79 1000.3
20240623222924 80 301 0.0 0.0 0.01 0.93 0.03 78 1000.6
20240623221924 80 312 0.0 0.0 0.00 0.92 0.02 77 1000.3
20240623221424 80 312 0.0 0.0 0.00 0.92 0.02 77 1000.4
20240623220923 80 312 0.0 0.0 0.00 0.92 0.02 77 1000.6
20240623215923 81 269 0.0 3.0 0.00 0.92 0.02 76 1000.9
20240623215423 81 238 3.0 3.0 0.00 0.92 0.02 76 1000.9
20240623214923 80 277 2.0 3.0 0.00 0.92 0.02 75 1001.0
20240623214423 81 255 3.0 3.0 0.00 0.92 0.02 74 1000.9
20240623213923 81 301 0.0 4.0 0.00 0.92 0.02 73 1000.9
20240623213423 81 323 4.0 6.0 0.00 0.92 0.02 71 1001.1
20240623212923 82 188 6.0 6.0 0.00 0.92 0.02 69 1000.7
20240623212423 82 238 3.0 3.0 0.00 0.92 0.02 68 1000.6
20240623211923 82 281 0.0 0.0 0.00 0.92 0.02 68 1000.6
20240623211423 82 288 0.0 7.0 0.00 0.92 0.02 68 1000.7
20240623210923 82 298 7.0 7.0 0.00 0.92 0.02 68 1000.8
20240623210423 82 251 5.0 5.0 0.00 0.92 0.02 68 1000.7
20240623205923 82 211 3.0 3.0 0.01 0.92 0.02 71 1000.6
20240623204422 81 171 1.0 3.0 0.01 0.92 0.02 74 1000.8
20240623203922 81 296 3.0 3.0 0.01 0.92 0.02 76 1000.7
20240623203422 80 270 0.0 2.0 0.01 0.92 0.02 76 1000.7
20240623202422 81 249 4.0 4.0 0.01 0.92 0.02 76 1000.8
20240623201922 81 321 3.0 7.0 0.01 0.92 0.02 75 1001.0
20240623201422 82 300 7.0 14.0 0.01 0.92 0.02 73 1001.0
20240623200922 83 239 14.0 14.0 0.01 0.92 0.02 70 1000.9
20240623200422 83 172 0.0 2.0 0.01 0.92 0.02 69 1000.6
20240623195921 84 220 2.0 3.0 0.00 0.91 0.01 70 1000.7
20240623195421 84 202 3.0 4.0 0.00 0.91 0.01 69 1000.9
20240623194922 84 169 4.0 4.0 0.00 0.91 0.01 68 1000.8
20240623194422 84 241 0.0 0.0 0.00 0.91 0.01 68 1000.9
20240623193921 84 209 0.0 0.0 0.00 0.91 0.01 67 1000.9
20240623192921 84 306 6.0 6.0 0.00 0.91 0.01 67 1001.3
20240623192421 84 275 5.0 5.0 0.00 0.91 0.01 67 1001.4
20240623191921 84 220 5.0 5.0 0.00 0.91 0.01 68 1001.3
20240623191420 84 264 2.0 4.0 0.00 0.91 0.01 67 1001.3
20240623190921 84 189 4.0 4.0 0.00 0.91 0.01 67 1001.4
20240623190421 85 180 2.0 2.0 0.00 0.91 0.01 68 1001.5
20240623185920 85 202 1.0 1.0 0.00 0.91 0.01 68 1001.5
20240623185420 85 259 0.0 6.0 0.00 0.91 0.01 66 1001.6
20240623184920 85 236 6.0 6.0 0.00 0.91 0.01 66 1001.6
20240623184421 85 248 0.0 3.0 0.00 0.91 0.01 65 1001.7
20240623183920 85 272 3.0 3.0 0.00 0.91 0.01 66 1001.7
20240623183420 86 258 0.0 3.0 0.00 0.91 0.01 66 1001.7
20240623182920 86 276 3.0 3.0 0.00 0.91 0.01 64 1001.7
20240623182420 86 208 3.0 9.0 0.00 0.91 0.01 64 1001.7
20240623180920 86 254 8.0 8.0 0.00 0.91 0.01 64 1001.9
20240623175920 86 198 1.0 2.0 0.00 0.91 0.01 64 1002.0
20240623175419 86 163 2.0 10.0 0.00 0.91 0.01 64 1002.1
20240623174920 86 164 10.0 10.0 0.00 0.91 0.01 65 1002.3
20240623174420 85 175 5.0 5.0 0.00 0.91 0.01 66 1002.3
20240623173920 85 165 4.0 4.0 0.00 0.91 0.01 66 1002.4
20240623173420 85 269 0.0 9.0 0.00 0.91 0.01 66 1002.5
20240623172919 85 265 9.0 9.0 0.00 0.91 0.01 66 1002.6
20240623172420 85 240 6.0 6.0 0.00 0.91 0.01 66 1002.6
20240623171419 85 287 1.0 10.0 0.00 0.91 0.01 68 1002.8
20240623170919 84 261 10.0 10.0 0.00 0.91 0.01 68 1002.8
20240623170419 84 177 7.0 7.0 0.00 0.91 0.01 69 1002.8
20240623164448 83 184 2.0 8.0 0.00 0.91 0.01 71 1003.1
20240623163919 83 250 8.0 8.0 0.00 0.91 0.01 71 1003.2
20240623163419 83 216 5.0 5.0 0.00 0.91 0.01 71 1003.3
20240623162949 83 208 3.0 3.0 0.00 0.91 0.01 71 1003.3
20240623161918 83 275 3.0 6.0 0.00 0.91 0.01 71 1003.6
20240623160919 83 228 7.0 7.0 0.00 0.91 0.01 72 1003.7
20240623160418 83 179 1.0 1.0 0.00 0.91 0.01 72 1003.7
20240623155918 83 218 1.0 2.0 0.00 0.91 0.01 72 1003.9
20240623154918 83 197 7.0 7.0 0.00 0.91 0.01 72 1003.9
20240623154448 82 202 1.0 1.0 0.00 0.91 0.01 73 1003.9
20240623153918 82 238 0.0 0.0 0.00 0.91 0.01 73 1003.9
20240623153418 82 209 0.0 1.0 0.00 0.91 0.01 73 1004.1
20240623152447 82 140 5.0 7.0 0.00 0.91 0.01 74 1004.2
20240623151918 82 246 7.0 7.0 0.00 0.91 0.01 74 1004.2
20240623151417 82 197 3.0 3.0 0.00 0.91 0.01 75 1004.2
20240623150417 81 173 3.0 3.0 0.00 0.91 0.01 75 1004.1
20240623145947 81 269 2.0 2.0 0.00 0.91 0.01 77 1004.2
20240623144917 80 209 6.0 6.0 0.00 0.91 0.01 78 1004.2
20240623144447 80 262 3.0 3.0 0.00 0.91 0.01 78 1004.3
20240623143917 80 211 3.0 3.0 0.00 0.91 0.01 79 1004.3
20240623143447 80 204 3.0 3.0 0.00 0.91 0.01 80 1004.4
20240623142917 79 191 2.0 2.0 0.00 0.91 0.01 80 1004.4
20240623142446 79 174 2.0 3.0 0.00 0.91 0.01 80 1004.5
20240623141917 79 217 3.0 5.0 0.00 0.91 0.01 81 1004.6
20240623141447 79 219 5.0 5.0 0.00 0.91 0.01 82 1004.6
20240623140946 79 238 0.0 7.0 0.00 0.91 0.01 82 1004.7
20240623135916 78 212 4.0 4.0 0.00 0.91 0.01 84 1004.6
20240623134446 77 256 1.0 1.0 0.00 0.91 0.01 87 1004.8
20240623133446 77 195 0.0 0.0 0.00 0.91 0.01 90 1005.0
20240623132916 77 296 0.0 0.0 0.00 0.91 0.01 90 1005.1
20240623132446 76 327 0.0 0.0 0.00 0.91 0.01 91 1005.1
20240623131916 76 49 0.0 0.0 0.00 0.91 0.01 91 1005.1